Austin, Arkansas
Current Conditions -  °F | °C
As of 12:58 AM on Saturday 29 Nov 2014 (Local Time) from KLRF Reporting Station
Clear Clear  
Wind Chill: 45°   Ceiling: Unl
Heat Index: 48°   Visibility: 10mi
Dew Point: 40°   Wind: 8mph
Humidity: 73%   Direction: 190°S
Pressure: 30.01"   Gusts: NA
Location:  35°N, 91.98°W
Report Text: KLRF 290658Z AUTO 19007KT 10SM CLR 09/05 A3001 RMK AO2 SLP165 T00910045 $
Loading
Personal Weather Stations






























Interactive Weather Map New forecast layout! Learn more

10-Day Weather Forecast

Advertisements
Track Severe Weather on mobile